Time;durP1;ratioP1;P1;durP2;ratioP2;P2;SDS_P1;SDS_P2;PMS_P1;PMS_P2;Temp;Humidity;BMP_temperature;BMP_pressure;BME280_temperature;BME280_humidity;BME280_pressure;Samples;Min_cycle;Max_cycle;Signal;HPM_P1;HPM_P2
2024/03/03 00:00:31;;;;;;;;;30.00;23.67;;;;;7.99;85.73;100129.04;112059;248;40038;-52
2024/03/03 00:03:28;;;;;;;;;44.00;32.00;;;;;7.97;85.63;100127.23;111936;245;162132;-53
2024/03/03 00:06:08;;;;;;;;;41.00;31.00;;;;;7.96;85.68;100129.44;112102;248;39502;-51
2024/03/03 00:08:46;;;;;;;;;33.50;25.75;;;;;7.96;85.55;100124.77;111918;245;161121;-51
2024/03/03 00:11:27;;;;;;;;;37.67;30.00;;;;;7.97;85.66;100116.21;112089;248;40694;-52
2024/03/03 00:14:15;;;;;;;;;41.00;32.00;;;;;7.98;85.65;100117.83;112067;249;39649;-51
2024/03/03 00:16:59;;;;;;;;;39.25;30.00;;;;;7.99;85.47;100119.73;112052;247;40604;-52
2024/03/03 00:19:41;;;;;;;;;35.00;27.25;;;;;7.99;85.38;100118.96;112047;249;39527;-52
2024/03/03 00:22:16;;;;;;;;;34.00;26.50;;;;;8.00;85.14;100109.57;111941;245;160250;-53
2024/03/03 00:24:51;;;;;;;;;32.25;23.75;;;;;7.99;85.01;100112.91;112061;248;38905;-53
2024/03/03 00:27:32;;;;;;;;;37.50;29.50;;;;;7.96;84.93;100111.98;111947;248;160432;-52
2024/03/03 00:30:08;;;;;;;;;31.00;22.50;;;;;7.94;84.68;100113.55;112033;248;39191;-52
2024/03/03 00:32:49;;;;;;;;;35.25;27.00;;;;;7.88;84.53;100111.70;111969;245;160809;-51
2024/03/03 00:35:26;;;;;;;;;35.50;25.00;;;;;7.86;84.42;100110.80;112079;248;39249;-50
2024/03/03 00:38:02;;;;;;;;;45.00;33.00;;;;;7.88;84.25;100103.85;112132;249;40552;-50
2024/03/03 00:40:46;;;;;;;;;42.00;31.00;;;;;7.88;84.38;100106.50;111985;245;161387;-51
2024/03/03 00:43:23;;;;;;;;;31.00;24.00;;;;;7.89;84.39;100101.17;112070;248;39360;-50
2024/03/03 00:45:59;;;;;;;;;34.75;25.50;;;;;7.90;84.31;100100.73;111937;245;161418;-51
2024/03/03 00:48:40;;;;;;;;;33.00;25.00;;;;;7.93;84.01;100095.88;112050;248;39478;-51
2024/03/03 00:51:20;;;;;;;;;37.25;28.25;;;;;7.92;84.04;100092.14;111966;245;160319;-51
2024/03/03 00:53:57;;;;;;;;;39.25;28.50;;;;;7.94;83.76;100089.23;112077;248;39568;-51
2024/03/03 00:56:36;;;;;;;;;39.00;28.00;;;;;7.95;83.76;100087.04;111967;245;160477;-51
2024/03/03 00:59:15;;;;;;;;;27.75;20.50;;;;;7.92;83.57;100082.29;112045;248;40337;-51
2024/03/03 01:01:56;;;;;;;;;33.50;27.25;;;;;7.90;83.54;100082.45;112155;247;39550;-53
2024/03/03 01:04:33;;;;;;;;;27.00;22.00;;;;;7.87;83.11;100087.64;111978;244;160209;-53
2024/03/03 01:07:08;;;;;;;;;32.25;25.50;;;;;7.83;83.37;100087.52;112163;247;39429;-50
2024/03/03 01:09:52;;;;;;;;;33.00;25.00;;;;;7.80;83.36;100084.63;111966;243;160955;-53
2024/03/03 01:12:33;;;;;;;;;28.75;22.75;;;;;7.82;83.41;100085.33;112126;246;39692;-51
2024/03/03 01:15:12;;;;;;;;;31.67;23.67;;;;;7.83;83.43;100084.64;111976;244;161661;-51
2024/03/03 01:17:57;;;;;;;;;34.00;26.33;;;;;7.83;83.35;100087.17;112180;246;40166;-50
2024/03/03 01:20:35;;;;;;;;;33.00;25.00;;;;;7.86;83.40;100082.87;111959;244;161434;-50
2024/03/03 01:23:17;;;;;;;;;30.67;22.67;;;;;7.88;83.30;100080.92;112075;246;39300;-51
2024/03/03 01:25:56;;;;;;;;;32.00;23.25;;;;;7.87;83.23;100080.25;112178;247;40072;-53
2024/03/03 01:28:30;;;;;;;;;26.25;21.75;;;;;7.86;83.08;100076.55;111945;244;160561;-53
2024/03/03 01:31:07;;;;;;;;;34.00;25.00;;;;;7.84;83.07;100078.98;112161;247;39879;-50
2024/03/03 01:33:43;;;;;;;;;29.25;22.25;;;;;7.81;82.92;100073.81;111994;243;160412;-50
2024/03/03 01:36:23;;;;;;;;;29.50;23.75;;;;;7.78;83.14;100078.98;112052;247;39289;-50
2024/03/03 01:39:01;;;;;;;;;27.25;21.00;;;;;7.73;83.08;100077.89;111935;244;160722;-50
2024/03/03 01:41:47;;;;;;;;;32.00;24.00;;;;;7.71;82.84;100075.83;112059;246;39472;-51
2024/03/03 01:44:24;;;;;;;;;34.00;27.00;;;;;7.70;82.94;100077.24;111989;247;40000;-50
2024/03/03 01:46:58;;;;;;;;;25.50;20.00;;;;;7.67;82.98;100072.89;112109;248;39153;-53
2024/03/03 01:49:37;;;;;;;;;35.00;27.00;;;;;7.66;82.98;100071.01;112022;247;39215;-53
2024/03/03 01:52:13;;;;;;;;;36.00;27.75;;;;;7.67;83.00;100071.95;111951;245;160902;-53
2024/03/03 01:54:47;;;;;;;;;38.25;29.00;;;;;7.69;83.14;100070.99;112055;248;40801;-53
2024/03/03 01:57:28;;;;;;;;;28.00;23.00;;;;;7.69;83.16;100070.04;112005;246;162141;-53
2024/03/03 02:00:06;;;;;;;;;29.50;23.50;;;;;7.70;83.26;100070.89;112085;247;40379;-53
2024/03/03 02:02:47;;;;;;;;;36.00;28.00;;;;;7.74;83.07;100065.33;111945;247;160820;-52
2024/03/03 02:05:30;;;;;;;;;25.00;20.00;;;;;7.75;82.94;100072.34;112069;247;40115;-52
2024/03/03 02:08:10;;;;;;;;;35.00;27.75;;;;;7.72;82.92;100065.13;112110;247;39424;-54
2024/03/03 02:10:51;;;;;;;;;35.75;27.75;;;;;7.70;82.85;100065.34;111947;248;160511;-52
2024/03/03 02:13:29;;;;;;;;;31.00;23.50;;;;;7.68;82.79;100064.34;112097;248;40652;-53
2024/03/03 02:16:08;;;;;;;;;30.67;23.67;;;;;7.65;82.84;100061.98;111970;244;161115;-51
2024/03/03 02:18:51;;;;;;;;;28.33;21.00;;;;;7.65;82.90;100063.88;112043;248;39044;-50
2024/03/03 02:21:31;;;;;;;;;30.00;23.00;;;;;7.63;83.00;100058.48;111958;243;161286;-51
2024/03/03 02:24:09;;;;;;;;;32.00;24.00;;;;;7.63;82.81;100053.10;112150;247;40043;-51
2024/03/03 02:26:50;;;;;;;;;29.00;22.25;;;;;7.62;82.94;100048.70;112060;245;161422;-52
2024/03/03 02:29:33;;;;;;;;;30.00;22.75;;;;;7.63;82.95;100050.46;112048;247;40939;-53
2024/03/03 02:32:17;;;;;;;;;39.00;29.00;;;;;7.62;82.91;100048.94;112077;248;39288;-51
2024/03/03 02:34:58;;;;;;;;;36.00;27.00;;;;;7.63;82.90;100045.10;111930;244;160025;-51
2024/03/03 02:37:39;;;;;;;;;29.00;23.00;;;;;7.62;82.95;100048.80;112116;248;40505;-51
2024/03/03 02:40:16;;;;;;;;;25.50;19.75;;;;;7.61;82.75;100047.63;111939;247;160642;-51
2024/03/03 02:42:54;;;;;;;;;34.00;26.00;;;;;7.57;82.87;100051.45;112136;247;41316;-50
2024/03/03 02:45:40;;;;;;;;;27.75;22.00;;;;;7.55;82.80;100055.17;111985;243;160883;-50
2024/03/03 02:48:22;;;;;;;;;28.00;22.50;;;;;7.53;82.90;100060.55;112215;247;41051;-51
2024/03/03 02:50:56;;;;;;;;;27.75;22.75;;;;;7.51;82.99;100059.36;112094;245;161448;-50
2024/03/03 02:53:41;;;;;;;;;33.00;25.00;;;;;7.51;83.06;100061.10;112056;247;39386;-51
2024/03/03 02:56:19;;;;;;;;;26.50;21.75;;;;;7.52;83.12;100058.71;112094;248;39113;-50
2024/03/03 02:59:01;;;;;;;;;40.25;29.25;;;;;7.51;83.08;100059.15;111967;244;160508;-49
2024/03/03 03:01:44;;;;;;;;;38.33;29.00;;;;;7.53;83.08;100060.52;112095;248;39645;-52
2024/03/03 03:04:21;;;;;;;;;36.50;28.75;;;;;7.55;82.96;100056.29;111945;244;161579;-51
2024/03/03 03:07:02;;;;;;;;;30.00;22.00;;;;;7.54;82.91;100056.60;112068;247;39439;-50
2024/03/03 03:09:41;;;;;;;;;38.00;28.00;;;;;7.51;82.84;100057.48;111924;243;162279;-51
2024/03/03 03:12:22;;;;;;;;;32.00;24.50;;;;;7.46;82.93;100058.48;112142;247;39990;-53
2024/03/03 03:15:06;;;;;;;;;33.00;26.00;;;;;7.42;83.04;100061.00;112587;240;160652;-54
2024/03/03 03:17:45;;;;;;;;;27.67;20.67;;;;;7.40;83.08;100058.59;113095;243;41614;-50
2024/03/03 03:20:25;;;;;;;;;42.25;30.00;;;;;7.38;83.18;100056.83;113593;243;40619;-50
2024/03/03 03:23:05;;;;;;;;;28.00;21.75;;;;;7.36;83.13;100056.91;112487;242;40194;-54
2024/03/03 03:25:42;;;;;;;;;39.00;29.00;;;;;7.34;83.17;100059.36;112800;242;41234;-54
2024/03/03 03:28:20;;;;;;;;;37.00;28.33;;;;;7.36;83.14;100061.51;112409;240;161464;-52
2024/03/03 03:30:58;;;;;;;;;31.25;24.25;;;;;7.36;83.15;100066.30;113412;243;40283;-52
2024/03/03 03:33:38;;;;;;;;;37.00;26.00;;;;;7.35;83.23;100064.09;112767;241;161185;-53
2024/03/03 03:36:15;;;;;;;;;34.00;26.00;;;;;7.36;83.34;100058.48;112853;244;40201;-52
2024/03/03 03:38:54;;;;;;;;;39.00;30.00;;;;;7.40;83.28;100058.92;113021;240;161145;-51
2024/03/03 03:41:35;;;;;;;;;30.00;21.50;;;;;7.39;83.38;100057.73;112950;243;40668;-52
2024/03/03 03:44:10;;;;;;;;;39.25;27.50;;;;;7.37;83.31;100058.31;113282;244;39222;-54
2024/03/03 03:46:48;;;;;;;;;40.00;30.00;;;;;7.35;83.22;100059.26;112681;239;160779;-53
2024/03/03 03:49:24;;;;;;;;;38.00;29.00;;;;;7.33;83.34;100058.34;112793;242;39839;-53
2024/03/03 03:52:03;;;;;;;;;32.75;25.00;;;;;7.28;83.40;100056.42;112635;243;160790;-52
2024/03/03 03:54:44;;;;;;;;;35.00;27.00;;;;;7.25;83.40;100060.53;113359;243;40375;-52
2024/03/03 03:57:21;;;;;;;;;28.33;22.67;;;;;7.22;83.48;100062.49;113130;240;162551;-53
2024/03/03 03:59:57;;;;;;;;;27.00;22.00;;;;;7.18;83.62;100058.55;113212;243;40858;-53
2024/03/03 04:02:34;;;;;;;;;31.25;25.00;;;;;7.20;83.62;100058.58;113268;240;161323;-52
2024/03/03 04:05:11;;;;;;;;;41.33;31.67;;;;;7.16;83.78;100055.44;112827;243;39808;-53
2024/03/03 04:07:49;;;;;;;;;31.00;24.00;;;;;7.16;83.76;100055.42;113138;243;39538;-49
2024/03/03 04:10:27;;;;;;;;;33.00;26.00;;;;;7.19;83.75;100053.84;112748;239;161491;-50
2024/03/03 04:13:07;;;;;;;;;40.00;30.33;;;;;7.18;83.84;100050.75;112778;242;39748;-49
2024/03/03 04:15:42;;;;;;;;;33.00;25.67;;;;;7.20;83.86;100050.64;112620;240;160613;-50
2024/03/03 04:18:24;;;;;;;;;32.00;25.25;;;;;7.21;83.89;100050.91;113135;243;39299;-51
2024/03/03 04:21:09;;;;;;;;;31.50;24.00;;;;;7.20;83.73;100043.16;113030;240;161984;-51
2024/03/03 04:23:45;;;;;;;;;37.00;26.75;;;;;7.19;83.85;100041.31;113101;243;39563;-51
2024/03/03 04:26:24;;;;;;;;;35.00;27.25;;;;;7.16;83.90;100044.36;113064;243;39477;-52
2024/03/03 04:29:14;;;;;;;;;35.50;26.75;;;;;7.15;83.82;100041.20;112434;244;40556;-53
2024/03/03 04:31:54;;;;;;;;;30.50;23.00;;;;;7.13;84.13;100037.36;112764;244;39807;-50
2024/03/03 04:34:39;;;;;;;;;32.00;26.00;;;;;7.12;84.09;100035.81;112670;243;161287;-50
2024/03/03 04:37:18;;;;;;;;;43.75;32.00;;;;;7.13;84.18;100037.48;112927;243;39740;-50
2024/03/03 04:40:00;;;;;;;;;39.50;30.50;;;;;7.14;84.18;100034.50;112763;239;161295;-50
2024/03/03 04:42:38;;;;;;;;;37.75;27.00;;;;;7.11;84.31;100038.98;112741;242;40603;-52
2024/03/03 04:45:14;;;;;;;;;39.00;29.25;;;;;7.11;84.20;100045.39;112634;240;160758;-53
2024/03/03 04:47:53;;;;;;;;;46.50;33.00;;;;;7.12;84.26;100047.25;113043;243;40630;-52
2024/03/03 04:50:34;;;;;;;;;33.00;26.00;;;;;7.10;84.27;100047.00;113183;243;40536;-51
2024/03/03 04:53:10;;;;;;;;;38.25;29.00;;;;;7.06;84.21;100045.45;112455;243;39214;-51
2024/03/03 04:55:45;;;;;;;;;30.00;24.00;;;;;7.04;84.29;100046.44;112784;242;39183;-52
2024/03/03 04:58:25;;;;;;;;;35.33;27.00;;;;;7.04;84.28;100046.31;112621;242;161106;-51
2024/03/03 05:00:59;;;;;;;;;40.67;30.00;;;;;7.04;84.33;100048.42;113207;243;39836;-51
2024/03/03 05:03:36;;;;;;;;;35.50;25.00;;;;;7.05;84.23;100050.59;112933;240;161423;-50
2024/03/03 05:06:18;;;;;;;;;34.25;24.75;;;;;7.05;84.34;100049.55;112946;243;41127;-50
2024/03/03 05:08:57;;;;;;;;;46.75;36.00;;;;;7.05;84.37;100048.64;112831;243;161728;-50
2024/03/03 05:11:36;;;;;;;;;36.25;26.50;;;;;7.06;84.37;100056.89;112966;243;39849;-52
2024/03/03 05:14:18;;;;;;;;;41.33;31.67;;;;;7.03;84.48;100053.89;112989;243;40629;-53
2024/03/03 05:16:58;;;;;;;;;40.75;30.25;;;;;7.04;84.54;100052.71;112712;240;161452;-50
2024/03/03 05:19:38;;;;;;;;;46.33;32.67;;;;;7.06;84.49;100053.30;112968;243;40427;-49
2024/03/03 05:22:15;;;;;;;;;43.00;32.50;;;;;7.05;84.52;100053.48;112683;240;160337;-51
2024/03/03 05:25:01;;;;;;;;;40.67;31.00;;;;;7.03;84.41;100053.33;112858;243;39205;-51
2024/03/03 05:27:43;;;;;;;;;40.75;31.75;;;;;6.99;84.50;100056.29;112730;239;160697;-49
2024/03/03 05:30:21;;;;;;;;;37.50;29.00;;;;;6.95;84.46;100057.12;112764;242;39433;-49
2024/03/03 05:32:55;;;;;;;;;38.50;29.25;;;;;6.94;84.65;100059.21;112633;240;161618;-53
2024/03/03 05:35:31;;;;;;;;;44.00;32.75;;;;;6.91;84.73;100064.83;112775;243;40400;-53
2024/03/03 05:38:09;;;;;;;;;34.67;25.67;;;;;6.91;84.74;100060.70;112874;243;39792;-53
2024/03/03 05:40:50;;;;;;;;;40.00;28.50;;;;;6.93;84.76;100057.97;112601;240;161367;-52
2024/03/03 05:43:24;;;;;;;;;37.00;26.00;;;;;6.94;84.81;100062.05;112713;243;40277;-51
2024/03/03 05:46:05;;;;;;;;;42.33;30.00;;;;;6.98;85.01;100063.04;112579;241;161251;-51
2024/03/03 05:48:44;;;;;;;;;43.33;31.67;;;;;7.07;84.91;100064.81;112721;243;39769;-50
2024/03/03 05:51:24;;;;;;;;;36.33;27.67;;;;;7.16;84.77;100065.24;112590;239;161465;-51
2024/03/03 05:54:01;;;;;;;;;43.25;33.00;;;;;7.18;84.79;100065.95;112759;243;39622;-53
2024/03/03 05:56:40;;;;;;;;;46.75;34.00;;;;;7.25;84.77;100068.15;112775;242;40125;-51
2024/03/03 05:59:17;;;;;;;;;44.75;34.25;;;;;7.29;84.62;100067.76;112467;244;40305;-51
2024/03/03 06:01:54;;;;;;;;;43.75;33.50;;;;;7.32;84.65;100067.20;112542;244;39599;-50
2024/03/03 06:04:30;;;;;;;;;40.00;28.50;;;;;7.35;84.60;100066.45;112327;240;160743;-50
2024/03/03 06:07:07;;;;;;;;;42.25;32.00;;;;;7.35;84.48;100070.62;113149;243;39164;-53
2024/03/03 06:09:48;;;;;;;;;40.25;29.75;;;;;7.31;84.37;100065.16;112755;241;160596;-53
2024/03/03 06:12:26;;;;;;;;;35.67;27.00;;;;;7.28;84.40;100071.73;112642;244;41547;-50
2024/03/03 06:15:00;;;;;;;;;41.25;31.00;;;;;7.26;84.45;100065.06;112669;240;161699;-50
2024/03/03 06:17:37;;;;;;;;;37.50;28.50;;;;;7.24;84.36;100062.70;112741;243;40869;-49
2024/03/03 06:20:13;;;;;;;;;35.00;26.50;;;;;7.28;84.40;100059.44;112747;244;41434;-49
2024/03/03 06:22:51;;;;;;;;;34.00;27.00;;;;;7.34;84.35;100063.73;112660;240;161277;-53
2024/03/03 06:25:33;;;;;;;;;35.75;26.50;;;;;7.40;84.30;100063.50;112767;243;39797;-53
2024/03/03 06:28:13;;;;;;;;;47.25;35.25;;;;;7.45;84.33;100062.96;112657;240;161291;-50
2024/03/03 06:30:53;;;;;;;;;46.00;34.00;;;;;7.55;84.24;100066.42;112556;243;39089;-51
2024/03/03 06:33:34;;;;;;;;;48.00;35.50;;;;;7.67;84.14;100063.89;112450;240;160602;-50
2024/03/03 06:36:16;;;;;;;;;43.50;33.50;;;;;7.81;84.19;100061.07;112630;243;40250;-50
2024/03/03 06:38:50;;;;;;;;;48.00;36.00;;;;;8.15;83.90;100063.40;111951;241;549106;-50
2024/03/03 06:41:30;;;;;;;;;48.00;35.00;;;;;8.27;83.54;100069.07;112546;243;40464;-52
2024/03/03 06:44:16;;;;;;;;;40.25;28.25;;;;;8.38;83.31;100069.42;112530;243;39770;-52
2024/03/03 06:46:52;;;;;;;;;47.33;35.67;;;;;8.46;83.11;100071.55;112382;240;160793;-52
2024/03/03 06:49:31;;;;;;;;;49.50;36.00;;;;;8.44;82.52;100069.72;113525;243;39378;-52
2024/03/03 06:52:08;;;;;;;;;48.00;33.00;;;;;8.38;82.34;100072.23;112683;241;161220;-50
2024/03/03 06:54:51;;;;;;;;;48.00;34.75;;;;;8.38;82.44;100072.56;113280;243;39799;-50
2024/03/03 06:57:26;;;;;;;;;51.00;37.25;;;;;8.78;82.46;100071.98;113107;240;162474;-50
2024/03/03 07:00:06;;;;;;;;;49.00;37.00;;;;;9.31;82.03;100068.23;113215;243;39838;-49
2024/03/03 07:05:36;;;;;;;;;56.00;42.00;;;;;10.01;80.14;100069.60;112774;242;40901;-50
2024/03/03 07:08:11;;;;;;;;;50.25;38.25;;;;;9.94;79.41;100071.95;112760;242;39658;-50
2024/03/03 07:10:46;;;;;;;;;56.00;40.00;;;;;9.86;78.72;100073.45;112647;240;160998;-51
2024/03/03 07:13:22;;;;;;;;;51.75;38.75;;;;;9.93;79.10;100070.56;113417;243;39254;-51
2024/03/03 07:15:56;;;;;;;;;52.25;39.75;;;;;10.17;79.26;100068.69;112913;240;160747;-51
2024/03/03 07:18:30;;;;;;;;;57.00;41.00;;;;;10.49;77.95;100070.95;113156;243;40003;-51
2024/03/03 07:21:07;;;;;;;;;57.00;41.33;;;;;10.83;78.47;100069.67;113227;240;161322;-53
2024/03/03 07:23:45;;;;;;;;;46.00;35.00;;;;;11.24;77.38;100069.05;113068;243;39087;-52
2024/03/03 07:26:21;;;;;;;;;52.00;39.25;;;;;11.17;75.75;100070.05;113473;243;39725;-51
2024/03/03 07:29:02;;;;;;;;;48.50;35.00;;;;;11.23;75.81;100079.00;112621;239;160625;-51
2024/03/03 07:31:39;;;;;;;;;54.33;42.00;;;;;10.85;75.22;100082.27;112764;242;39042;-50
2024/03/03 07:34:16;;;;;;;;;54.00;40.33;;;;;10.75;75.29;100085.14;112340;242;160738;-50
2024/03/03 07:36:57;;;;;;;;;61.25;46.00;;;;;11.13;75.96;100082.31;112590;244;39466;-50
2024/03/03 07:39:32;;;;;;;;;57.00;43.25;;;;;11.59;75.38;100086.56;112851;242;162028;-50
2024/03/03 07:42:14;;;;;;;;;60.33;43.00;;;;;11.10;74.32;100087.25;112957;244;40736;-50
2024/03/03 07:44:53;;;;;;;;;58.75;45.00;;;;;11.06;73.82;100089.89;113259;240;161812;-50
2024/03/03 07:47:31;;;;;;;;;56.33;41.00;;;;;10.94;73.51;100086.86;112969;243;39178;-52
2024/03/03 07:50:09;;;;;;;;;55.50;41.50;;;;;10.56;73.80;100084.14;113425;243;40315;-52
2024/03/03 07:52:46;;;;;;;;;43.75;33.75;;;;;10.30;73.66;100082.55;112785;239;160947;-52
2024/03/03 07:55:29;;;;;;;;;48.50;36.00;;;;;10.11;73.89;100090.34;112789;242;40849;-52
2024/03/03 07:58:06;;;;;;;;;53.50;41.00;;;;;10.00;74.37;100086.73;112635;240;160778;-50
2024/03/03 08:00:49;;;;;;;;;52.75;40.00;;;;;10.85;74.25;100092.23;113367;243;41354;-50
2024/03/03 08:03:26;;;;;;;;;63.00;46.33;;;;;12.84;74.74;100084.23;112286;241;161122;-51
2024/03/03 08:06:01;;;;;;;;;58.00;41.00;;;;;14.75;73.09;100078.85;113041;243;40928;-53
2024/03/03 08:08:39;;;;;;;;;58.50;42.75;;;;;15.95;69.22;100079.42;113465;243;39147;-53
2024/03/03 08:11:16;;;;;;;;;58.25;44.25;;;;;16.52;67.48;100074.89;112641;244;39241;-53
2024/03/03 08:13:52;;;;;;;;;64.00;48.00;;;;;17.37;65.50;100078.12;113293;243;39736;-53
2024/03/03 08:16:31;;;;;;;;;73.50;56.00;;;;;17.96;64.54;100079.05;112511;240;161342;-51
2024/03/03 08:19:14;;;;;;;;;47.25;36.75;;;;;18.07;59.54;100077.88;112933;243;39066;-50
2024/03/03 08:21:52;;;;;;;;;59.25;45.00;;;;;18.02;59.60;100075.65;112801;241;160955;-50
2024/03/03 08:24:36;;;;;;;;;61.00;46.50;;;;;17.93;59.15;100078.22;112757;243;39084;-50
2024/03/03 08:27:14;;;;;;;;;59.00;45.75;;;;;17.55;58.40;100084.79;112615;240;161158;-53
2024/03/03 08:29:56;;;;;;;;;57.00;42.67;;;;;17.32;58.30;100083.36;112659;244;40576;-53
2024/03/03 08:32:34;;;;;;;;;53.00;42.00;;;;;17.33;57.73;100080.27;113063;243;41638;-62
2024/03/03 08:35:09;;;;;;;;;58.50;44.75;;;;;17.07;56.88;100087.95;112475;243;39810;-52
2024/03/03 08:37:45;;;;;;;;;65.00;50.00;;;;;17.11;57.27;100080.23;112889;243;40002;-57
2024/03/03 08:40:25;;;;;;;;;61.00;47.00;;;;;16.70;56.11;100081.56;112633;241;160977;-50
2024/03/03 08:43:03;;;;;;;;;57.67;44.00;;;;;16.70;56.92;100080.92;113119;243;39873;-50
2024/03/03 08:45:45;;;;;;;;;58.75;43.50;;;;;16.88;56.07;100083.38;112777;240;161210;-50
2024/03/03 08:48:24;;;;;;;;;58.00;44.75;;;;;16.68;55.21;100087.91;112842;243;40261;-54
2024/03/03 08:51:02;;;;;;;;;59.00;47.00;;;;;16.31;55.28;100087.61;112716;240;161254;-51
2024/03/03 08:53:44;;;;;;;;;64.50;49.00;;;;;16.16;56.45;100089.15;112707;243;40796;-50
2024/03/03 08:56:21;;;;;;;;;52.00;41.00;;;;;16.23;57.10;100087.14;112738;244;40957;-53
2024/03/03 08:59:01;;;;;;;;;62.00;47.00;;;;;16.52;57.04;100078.58;112597;239;161216;-53
2024/03/03 09:01:38;;;;;;;;;58.00;44.00;;;;;16.29;55.99;100080.42;112778;242;39813;-52
2024/03/03 09:04:14;;;;;;;;;56.00;43.00;;;;;15.61;55.51;100083.65;112649;240;162256;-52
2024/03/03 09:06:48;;;;;;;;;58.00;45.00;;;;;14.70;55.65;100081.37;112730;243;39453;-53
2024/03/03 09:09:25;;;;;;;;;59.25;45.75;;;;;14.09;56.35;100085.23;112615;240;161107;-54
2024/03/03 09:12:03;;;;;;;;;59.75;44.75;;;;;13.76;57.30;100082.14;112840;243;40171;-51
2024/03/03 09:14:39;;;;;;;;;51.75;40.25;;;;;14.12;57.67;100085.52;112766;243;39131;-52
2024/03/03 09:17:19;;;;;;;;;57.00;44.33;;;;;14.61;57.44;100075.23;112520;244;39955;-50
2024/03/03 09:19:58;;;;;;;;;57.50;43.25;;;;;15.05;57.04;100075.24;112619;243;39107;-51
2024/03/03 09:22:34;;;;;;;;;53.50;40.00;;;;;15.05;57.20;100074.58;112354;240;161110;-50
2024/03/03 09:25:10;;;;;;;;;58.00;43.50;;;;;14.74;55.89;100075.31;113060;243;39249;-51
2024/03/03 09:27:45;;;;;;;;;59.50;45.00;;;;;14.54;56.49;100073.24;112679;241;161210;-55
2024/03/03 09:30:27;;;;;;;;;55.33;43.33;;;;;14.66;56.59;100076.65;112548;243;40551;-51
2024/03/03 09:33:12;;;;;;;;;57.00;42.00;;;;;14.98;55.90;100078.89;112321;240;161362;-54
2024/03/03 09:35:51;;;;;;;;;67.00;48.00;;;;;15.30;56.62;100072.28;112705;243;39669;-53
2024/03/03 09:38:29;;;;;;;;;55.50;42.75;;;;;15.54;55.89;100074.70;112574;243;39372;-51
2024/03/03 09:41:07;;;;;;;;;58.00;44.00;;;;;15.64;55.89;100076.77;112677;239;160784;-51
2024/03/03 09:43:51;;;;;;;;;61.75;48.00;;;;;15.70;55.77;100073.36;112733;242;39221;-51
2024/03/03 09:46:28;;;;;;;;;61.00;47.00;;;;;15.95;54.76;100069.95;112662;240;160954;-52
2024/03/03 09:49:07;;;;;;;;;60.00;45.50;;;;;15.84;53.35;100074.73;112574;243;40476;-52
2024/03/03 09:51:45;;;;;;;;;57.33;43.67;;;;;15.97;53.30;100074.26;112625;240;160994;-52
2024/03/03 09:54:22;;;;;;;;;59.33;46.00;;;;;16.04;53.56;100074.71;112656;243;39625;-53
2024/03/03 09:56:59;;;;;;;;;63.00;48.00;;;;;16.24;53.79;100076.92;112571;240;162254;-51
2024/03/03 09:59:39;;;;;;;;;59.25;45.50;;;;;16.29;53.29;100072.95;112718;243;39864;-50
2024/03/03 10:02:19;;;;;;;;;56.67;41.67;;;;;16.49;53.80;100072.04;112689;243;39028;-53
2024/03/03 10:04:58;;;;;;;;;53.50;41.25;;;;;16.33;53.71;100073.44;112706;239;160346;-53
2024/03/03 10:07:46;;;;;;;;;63.00;48.00;;;;;16.01;53.28;100076.16;112475;243;40110;-51
2024/03/03 10:10:30;;;;;;;;;60.25;45.75;;;;;15.21;53.66;100076.44;112687;242;160979;-50
2024/03/03 10:13:13;;;;;;;;;60.00;46.00;;;;;14.96;54.91;100077.47;112739;243;40461;-53
2024/03/03 10:15:50;;;;;;;;;60.00;44.33;;;;;14.79;54.66;100077.36;112646;240;162016;-52
2024/03/03 10:18:33;;;;;;;;;61.00;46.00;;;;;14.37;55.20;100074.70;112826;243;40001;-54
2024/03/03 10:21:12;;;;;;;;;58.00;45.00;;;;;13.96;55.44;100077.17;112615;240;162315;-50
2024/03/03 10:23:48;;;;;;;;;53.50;42.50;;;;;13.64;56.35;100077.75;112687;243;39277;-51
2024/03/03 10:26:35;;;;;;;;;59.67;44.00;;;;;13.46;56.73;100074.55;112563;243;40978;-51
2024/03/03 10:29:19;;;;;;;;;50.50;40.00;;;;;13.21;57.24;100070.47;112634;240;160758;-51
2024/03/03 10:32:00;;;;;;;;;56.75;42.75;;;;;12.95;57.68;100069.95;112763;243;40414;-52
2024/03/03 10:34:34;;;;;;;;;61.25;46.00;;;;;12.82;57.74;100068.66;112587;240;160945;-50
2024/03/03 10:37:12;;;;;;;;;58.00;43.00;;;;;12.75;58.39;100062.60;112709;243;39699;-52
2024/03/03 10:39:50;;;;;;;;;54.25;41.00;;;;;12.81;58.52;100062.80;112581;240;160954;-54
2024/03/03 10:42:32;;;;;;;;;55.00;41.00;;;;;12.80;58.77;100057.54;112711;243;39657;-53
2024/03/03 10:45:10;;;;;;;;;53.50;41.25;;;;;12.82;59.22;100060.59;112685;240;161453;-54
2024/03/03 10:47:45;;;;;;;;;61.67;45.33;;;;;12.82;59.13;100059.38;112796;243;39175;-53
2024/03/03 10:50:21;;;;;;;;;51.33;36.00;;;;;12.74;59.35;100054.48;112907;243;40123;-53
2024/03/03 10:53:01;;;;;;;;;51.00;38.00;;;;;12.89;59.54;100054.30;112701;240;161094;-50
2024/03/03 10:55:43;;;;;;;;;55.00;40.00;;;;;12.93;59.51;100052.84;112855;243;39216;-49
2024/03/03 10:58:21;;;;;;;;;55.00;41.33;;;;;13.29;59.86;100047.32;112639;240;160985;-51
2024/03/03 11:01:04;;;;;;;;;55.33;42.00;;;;;13.48;59.48;100045.05;113143;243;39550;-53
2024/03/03 11:03:42;;;;;;;;;51.00;38.25;;;;;13.40;59.47;100048.02;112369;241;161015;-54
2024/03/03 11:06:20;;;;;;;;;54.50;41.50;;;;;13.14;58.77;100051.27;113021;243;39537;-52
2024/03/03 11:08:55;;;;;;;;;62.25;46.00;;;;;13.11;59.25;100051.44;112905;240;162046;-52
2024/03/03 11:11:38;;;;;;;;;54.33;41.33;;;;;12.90;59.06;100049.27;112833;243;40073;-50
2024/03/03 11:14:17;;;;;;;;;59.75;44.25;;;;;12.83;59.40;100042.86;112938;243;39782;-51
2024/03/03 11:17:04;;;;;;;;;52.75;40.50;;;;;12.66;59.47;100038.64;112680;240;160950;-53
2024/03/03 11:19:46;;;;;;;;;58.25;43.50;;;;;12.49;59.80;100037.08;112787;243;40960;-53
2024/03/03 11:22:35;;;;;;;;;51.00;37.00;;;;;12.31;60.09;100031.84;112672;241;161089;-53
2024/03/03 11:25:24;;;;;;;;;61.00;46.00;;;;;12.25;60.31;100032.47;112664;243;40389;-53
2024/03/03 11:28:06;;;;;;;;;50.00;37.00;;;;;12.22;60.60;100026.86;112653;243;161468;-50
2024/03/03 11:30:43;;;;;;;;;48.00;37.00;;;;;12.26;60.90;100028.55;112420;244;40290;-51
2024/03/03 11:33:19;;;;;;;;;55.50;41.50;;;;;12.16;60.77;100026.52;112901;240;161168;-50
2024/03/03 11:35:56;;;;;;;;;55.75;42.75;;;;;11.90;61.03;100027.18;112989;243;39691;-54
2024/03/03 11:38:47;;;;;;;;;46.00;34.00;;;;;11.87;61.12;100023.14;113164;243;39562;-52
2024/03/03 11:41:25;;;;;;;;;49.50;37.25;;;;;11.77;61.36;100025.55;112457;243;40627;-51
2024/03/03 11:44:02;;;;;;;;;55.50;41.25;;;;;11.75;61.59;100022.63;112764;242;39907;-50
2024/03/03 11:46:54;;;;;;;;;59.00;44.00;;;;;11.67;61.89;100020.76;112679;240;161096;-53
2024/03/03 11:49:40;;;;;;;;;52.00;39.67;;;;;11.65;62.13;100010.13;112830;243;40013;-53
2024/03/03 11:52:45;;;;;;;;;53.33;39.67;;;;;11.59;62.23;100010.56;112648;240;161142;-52
2024/03/03 11:55:31;;;;;;;;;47.00;37.00;;;;;11.51;62.41;100011.77;114076;244;39291;-53
2024/03/03 11:58:07;;;;;;;;;47.00;36.00;;;;;11.46;62.29;100011.02;113227;240;161179;-51
2024/03/03 12:00:44;;;;;;;;;49.33;38.00;;;;;11.38;62.48;100007.27;113838;243;39864;-52
2024/03/03 12:03:28;;;;;;;;;47.50;36.25;;;;;11.39;62.93;100009.08;113541;240;161127;-53
2024/03/03 12:06:10;;;;;;;;;43.00;32.00;;;;;11.44;62.99;100007.00;113380;243;40715;-51
2024/03/03 12:08:54;;;;;;;;;49.25;37.75;;;;;11.50;63.01;100002.61;113863;244;40266;-51